Time;durP1;ratioP1;P1;durP2;ratioP2;P2;SDS_P1;SDS_P2;PMS_P1;PMS_P2;Temp;Humidity;BMP_temperature;BMP_pressure;BME280_temperature;BME280_humidity;BME280_pressure;Samples;Min_cycle;Max_cycle;Signal;HPM_P1;HPM_P2
2021/10/17 00:01:22;;;;;;;15.07;6.33;;;6.80;99.90;;;;;;5058720;28;20041;-82
2021/10/17 00:03:48;;;;;;;13.40;5.73;;;6.80;99.90;;;;;;5058613;28;20064;-83
2021/10/17 00:06:16;;;;;;;16.70;6.23;;;6.80;99.90;;;;;;5058375;28;20021;-83
2021/10/17 00:08:41;;;;;;;15.37;5.97;;;6.80;99.90;;;;;;5058129;28;20025;-83
2021/10/17 00:11:07;;;;;;;14.00;6.03;;;6.80;99.90;;;;;;5055086;28;20028;-82
2021/10/17 00:13:36;;;;;;;16.87;6.67;;;6.70;99.90;;;;;;5054116;28;20051;-82
2021/10/17 00:16:01;;;;;;;16.15;6.88;;;6.70;99.90;;;;;;5054054;28;20029;-83
2021/10/17 00:18:27;;;;;;;15.73;6.53;;;6.70;99.90;;;;;;5053762;28;20036;-83
2021/10/17 00:20:53;;;;;;;20.33;7.30;;;6.80;99.90;;;;;;5053911;28;20060;-83
2021/10/17 00:23:19;;;;;;;18.40;6.73;;;6.70;99.90;;;;;;5054416;28;20025;-82
2021/10/17 00:25:44;;;;;;;15.30;7.10;;;6.70;99.90;;;;;;5054196;28;20029;-83
2021/10/17 00:28:10;;;;;;;13.23;6.50;;;6.70;99.90;;;;;;5053904;28;20025;-83
2021/10/17 00:30:36;;;;;;;13.23;6.03;;;6.70;99.90;;;;;;5053783;28;20025;-83
2021/10/17 00:33:02;;;;;;;14.87;6.80;;;6.60;99.90;;;;;;5055099;28;20485;-83
2021/10/17 00:35:28;;;;;;;17.43;7.07;;;6.60;99.90;;;;;;5053479;28;20032;-83
2021/10/17 00:37:53;;;;;;;13.67;6.97;;;6.70;99.90;;;;;;5053728;28;20517;-83
2021/10/17 00:40:21;;;;;;;12.73;6.33;;;6.70;99.90;;;;;;5053263;28;20092;-83
2021/10/17 00:42:48;;;;;;;15.23;6.83;;;6.60;99.90;;;;;;5053406;28;20021;-83
2021/10/17 00:45:17;;;;;;;13.67;6.60;;;6.70;99.90;;;;;;5055237;28;20029;-83
2021/10/17 00:47:43;;;;;;;14.82;5.80;;;6.60;99.90;;;;;;5053786;28;20021;-83
2021/10/17 00:50:09;;;;;;;14.93;6.53;;;6.60;99.90;;;;;;5054960;28;20448;-83
2021/10/17 00:52:36;;;;;;;16.27;6.90;;;6.60;99.90;;;;;;5055723;28;20025;-83
2021/10/17 00:55:04;;;;;;;16.73;6.97;;;6.60;99.90;;;;;;5059206;28;20033;-83
2021/10/17 00:57:32;;;;;;;14.97;6.60;;;6.60;99.90;;;;;;5057447;28;20025;-83
2021/10/17 00:59:57;;;;;;;16.83;6.93;;;6.60;99.90;;;;;;5057262;28;20116;-83
2021/10/17 01:02:23;;;;;;;16.33;6.77;;;6.60;99.90;;;;;;5058911;28;20057;-83
2021/10/17 01:04:48;;;;;;;16.13;6.43;;;6.60;99.90;;;;;;5059566;28;20041;-83
2021/10/17 01:07:14;;;;;;;13.23;6.53;;;6.70;99.90;;;;;;5057447;28;20061;-83
2021/10/17 01:09:40;;;;;;;16.13;7.10;;;6.70;99.90;;;;;;5056648;28;20032;-83
2021/10/17 01:12:07;;;;;;;16.60;7.57;;;6.60;99.90;;;;;;5057389;28;20114;-83
2021/10/17 01:14:33;;;;;;;16.63;7.17;;;6.60;99.90;;;;;;5057003;28;20021;-83
2021/10/17 01:16:58;;;;;;;18.23;7.43;;;6.50;99.90;;;;;;5058968;28;20017;-83
2021/10/17 01:19:24;;;;;;;19.33;8.43;;;6.50;99.90;;;;;;5058232;28;20029;-82
2021/10/17 01:21:50;;;;;;;20.13;9.27;;;6.60;99.90;;;;;;5057516;28;20029;-83
2021/10/17 01:24:17;;;;;;;23.53;9.30;;;6.50;99.90;;;;;;5057350;28;20040;-83
2021/10/17 01:26:44;;;;;;;21.33;8.17;;;6.60;99.90;;;;;;5058638;28;20017;-83
2021/10/17 01:29:10;;;;;;;19.57;8.57;;;6.50;99.90;;;;;;5056222;28;20021;-83
2021/10/17 01:31:42;;;;;;;21.10;8.03;;;6.50;99.90;;;;;;5056747;28;20075;-83
2021/10/17 01:34:08;;;;;;;21.47;8.23;;;6.40;99.90;;;;;;5056959;28;20043;-83
2021/10/17 01:36:36;;;;;;;21.73;8.63;;;6.50;99.90;;;;;;5058995;28;20549;-83
2021/10/17 01:39:03;;;;;;;20.73;7.20;;;6.50;99.90;;;;;;5058185;28;20025;-83
2021/10/17 01:41:29;;;;;;;16.97;7.13;;;6.50;99.90;;;;;;5058681;28;20064;-83
2021/10/17 01:44:01;;;;;;;17.20;7.20;;;6.60;99.90;;;;;;5057641;28;20024;-83
2021/10/17 01:46:26;;;;;;;17.53;6.73;;;6.60;99.90;;;;;;5057733;28;20544;-83
2021/10/17 01:48:52;;;;;;;18.63;7.10;;;6.50;99.90;;;;;;5057311;28;20025;-83
2021/10/17 01:51:17;;;;;;;15.97;6.50;;;6.50;99.90;;;;;;5057518;28;20033;-82
2021/10/17 01:53:43;;;;;;;16.80;6.60;;;6.50;99.90;;;;;;5057369;28;20133;-82
2021/10/17 01:56:09;;;;;;;11.83;6.40;;;6.50;99.90;;;;;;5057831;28;20025;-82
2021/10/17 01:58:34;;;;;;;12.67;6.10;;;6.50;99.90;;;;;;5058870;28;20025;-83
2021/10/17 02:01:00;;;;;;;15.27;6.13;;;6.60;99.90;;;;;;5057143;28;20025;-83
2021/10/17 02:03:26;;;;;;;15.07;6.30;;;6.60;99.90;;;;;;5058330;28;20055;-83
2021/10/17 02:05:51;;;;;;;15.77;6.23;;;6.60;99.90;;;;;;5058962;28;20021;-83
2021/10/17 02:08:17;;;;;;;17.83;6.67;;;6.60;99.90;;;;;;5058964;28;20021;-83
2021/10/17 02:10:42;;;;;;;15.80;6.20;;;6.50;99.90;;;;;;5059187;28;20071;-83
2021/10/17 02:13:08;;;;;;;13.30;5.67;;;6.60;99.90;;;;;;5057824;28;20120;-83
2021/10/17 02:15:34;;;;;;;13.80;6.10;;;6.50;99.90;;;;;;5059570;28;20116;-83
2021/10/17 02:17:59;;;;;;;17.77;5.93;;;6.50;99.90;;;;;;5057769;28;20047;-83
2021/10/17 02:20:25;;;;;;;12.80;5.53;;;6.60;99.90;;;;;;5056983;28;20029;-83
2021/10/17 02:22:50;;;;;;;13.47;6.17;;;6.60;99.90;;;;;;5059374;28;20021;-83
2021/10/17 02:25:16;;;;;;;16.20;6.00;;;6.60;99.90;;;;;;5057609;28;20090;-83
2021/10/17 02:27:42;;;;;;;13.97;5.33;;;6.60;99.90;;;;;;5057828;28;20026;-83
2021/10/17 02:30:08;;;;;;;15.27;5.87;;;6.60;99.90;;;;;;5058886;28;20037;-83
2021/10/17 02:32:34;;;;;;;10.90;5.17;;;6.60;99.90;;;;;;5057388;28;20040;-83
2021/10/17 02:35:01;;;;;;;13.63;6.13;;;6.70;99.90;;;;;;5057361;28;20025;-83
2021/10/17 02:37:30;;;;;;;14.17;6.07;;;6.80;99.90;;;;;;5058136;28;20445;-83
2021/10/17 02:39:59;;;;;;;15.40;6.27;;;6.70;99.90;;;;;;5057555;28;20032;-83
2021/10/17 02:42:25;;;;;;;12.65;5.95;;;6.80;99.90;;;;;;5057953;28;20022;-83
2021/10/17 02:44:50;;;;;;;14.10;6.40;;;6.80;99.90;;;;;;5059067;28;20088;-83
2021/10/17 02:47:16;;;;;;;13.90;6.10;;;6.80;99.90;;;;;;5058176;28;20022;-83
2021/10/17 02:49:42;;;;;;;13.83;5.97;;;6.80;99.90;;;;;;5059100;28;20348;-83
2021/10/17 02:52:07;;;;;;;16.27;6.80;;;6.90;99.90;;;;;;5059245;28;20032;-83
2021/10/17 02:54:33;;;;;;;17.17;6.83;;;7.00;99.90;;;;;;5057990;28;20029;-83
2021/10/17 02:56:59;;;;;;;13.50;6.27;;;7.00;99.90;;;;;;5059235;28;20028;-83
2021/10/17 02:59:24;;;;;;;12.53;6.40;;;7.00;99.90;;;;;;5057278;28;20033;-83
2021/10/17 03:01:50;;;;;;;15.80;6.83;;;7.00;99.90;;;;;;5058456;28;20100;-83
2021/10/17 03:04:16;;;;;;;16.50;6.20;;;7.10;99.90;;;;;;5056564;28;20028;-83
2021/10/17 03:06:41;;;;;;;13.80;6.33;;;7.20;99.90;;;;;;5058223;28;20493;-83
2021/10/17 03:09:07;;;;;;;15.03;7.00;;;7.30;99.90;;;;;;5057482;28;20036;-83
2021/10/17 03:11:33;;;;;;;13.73;6.90;;;7.30;99.90;;;;;;5057336;28;20046;-83
2021/10/17 03:14:00;;;;;;;16.13;6.60;;;7.40;99.90;;;;;;5057890;28;20029;-83
2021/10/17 03:16:26;;;;;;;13.00;5.87;;;7.50;99.90;;;;;;5061073;28;20151;-83
2021/10/17 03:18:51;;;;;;;15.27;6.57;;;7.50;99.90;;;;;;5059423;28;20053;-83
2021/10/17 03:21:18;;;;;;;14.67;6.50;;;7.60;99.90;;;;;;5060467;28;20036;-83
2021/10/17 03:23:43;;;;;;;19.73;6.70;;;7.60;99.90;;;;;;5058934;28;20021;-83
2021/10/17 03:26:09;;;;;;;16.50;6.70;;;7.60;99.90;;;;;;5056557;28;20032;-82
2021/10/17 03:28:35;;;;;;;15.87;6.57;;;7.60;99.90;;;;;;5054750;28;20078;-83
2021/10/17 03:31:05;;;;;;;14.17;6.20;;;7.60;99.90;;;;;;5054075;28;20025;-83
2021/10/17 03:33:31;;;;;;;14.13;6.23;;;7.60;99.90;;;;;;5054772;28;20046;-83
2021/10/17 03:35:56;;;;;;;13.97;6.30;;;7.60;99.90;;;;;;5054266;28;20088;-82
2021/10/17 03:38:22;;;;;;;13.87;6.00;;;7.60;99.90;;;;;;5054424;28;20127;-83
2021/10/17 03:40:48;;;;;;;17.57;6.43;;;7.60;99.90;;;;;;5054000;28;20029;-83
2021/10/17 03:43:14;;;;;;;14.83;6.03;;;7.70;99.90;;;;;;5056264;28;20031;-83
2021/10/17 03:45:40;;;;;;;14.23;6.20;;;7.70;99.90;;;;;;5056587;28;20070;-82
2021/10/17 03:48:06;;;;;;;14.43;6.20;;;7.70;99.90;;;;;;5054209;28;20045;-83
2021/10/17 03:50:32;;;;;;;16.57;6.73;;;7.80;99.90;;;;;;5053339;28;20501;-83
2021/10/17 03:52:58;;;;;;;12.53;6.73;;;7.80;99.90;;;;;;5053632;28;20052;-83
2021/10/17 03:55:24;;;;;;;13.23;6.00;;;7.70;99.90;;;;;;5053747;28;20037;-82
2021/10/17 03:57:49;;;;;;;12.40;6.23;;;7.70;99.90;;;;;;5053425;28;20047;-83
2021/10/17 04:00:15;;;;;;;13.77;6.90;;;7.70;99.90;;;;;;5052399;28;20028;-83
2021/10/17 04:02:41;;;;;;;16.13;6.77;;;7.60;99.90;;;;;;5053525;28;20405;-83
2021/10/17 04:05:07;;;;;;;15.77;7.00;;;7.60;99.90;;;;;;5053186;28;20036;-83
2021/10/17 04:07:34;;;;;;;19.37;6.97;;;7.60;99.90;;;;;;5052892;28;20025;-82
2021/10/17 04:10:00;;;;;;;15.97;6.27;;;7.60;99.90;;;;;;5053055;28;20029;-83
2021/10/17 04:12:25;;;;;;;13.43;6.47;;;7.50;99.90;;;;;;5054981;28;20060;-83
2021/10/17 04:14:51;;;;;;;15.80;6.80;;;7.50;99.90;;;;;;5054337;28;20032;-83
2021/10/17 04:17:17;;;;;;;13.77;6.73;;;7.50;99.90;;;;;;5054216;28;20079;-83
2021/10/17 04:19:42;;;;;;;14.17;6.17;;;7.50;99.90;;;;;;5052841;28;20032;-82
2021/10/17 04:22:08;;;;;;;18.87;6.53;;;7.50;99.90;;;;;;5053244;28;20482;-83
2021/10/17 04:24:33;;;;;;;14.93;6.37;;;7.60;99.90;;;;;;5054800;28;20033;-83
2021/10/17 04:26:59;;;;;;;13.43;6.37;;;7.60;99.90;;;;;;5055385;28;20457;-83
2021/10/17 04:29:24;;;;;;;17.33;6.53;;;7.70;99.90;;;;;;5059067;28;20029;-83
2021/10/17 04:31:50;;;;;;;16.53;7.47;;;7.80;99.90;;;;;;5059115;28;20036;-83
2021/10/17 04:34:16;;;;;;;14.97;6.87;;;7.80;99.90;;;;;;5060835;28;20029;-83
2021/10/17 04:36:41;;;;;;;16.70;6.93;;;7.80;99.90;;;;;;5061480;28;20029;-83
2021/10/17 04:39:07;;;;;;;12.83;6.57;;;7.70;99.90;;;;;;5059062;28;20037;-83
2021/10/17 04:41:34;;;;;;;16.87;6.93;;;7.80;99.90;;;;;;5060529;28;20056;-82
2021/10/17 04:44:03;;;;;;;16.97;6.77;;;7.80;99.90;;;;;;5059124;28;20039;-83
2021/10/17 04:46:29;;;;;;;18.03;6.67;;;7.70;99.90;;;;;;5059113;28;20025;-83
2021/10/17 04:48:55;;;;;;;14.77;7.00;;;7.70;99.90;;;;;;5059332;28;20087;-83
2021/10/17 04:51:20;;;;;;;16.93;7.10;;;7.70;99.90;;;;;;5060373;28;20052;-82
2021/10/17 04:53:46;;;;;;;13.87;6.53;;;7.80;99.90;;;;;;5059526;28;20031;-83
2021/10/17 04:56:11;;;;;;;15.13;6.90;;;7.90;99.90;;;;;;5059563;28;20433;-83
2021/10/17 04:58:37;;;;;;;21.70;7.43;;;7.80;99.90;;;;;;5061140;28;20021;-83
2021/10/17 05:01:03;;;;;;;11.80;6.80;;;7.80;99.90;;;;;;5060098;28;20116;-83
2021/10/17 05:03:29;;;;;;;18.40;7.03;;;7.80;99.90;;;;;;5060096;28;20110;-83
2021/10/17 05:05:54;;;;;;;14.60;6.73;;;7.80;99.90;;;;;;5061570;28;20452;-83
2021/10/17 05:08:20;;;;;;;14.67;6.67;;;7.80;99.90;;;;;;5060651;28;20029;-83
2021/10/17 05:10:45;;;;;;;14.57;7.20;;;7.80;99.90;;;;;;5061118;28;20056;-83
2021/10/17 05:13:11;;;;;;;16.17;6.70;;;7.90;99.90;;;;;;5060523;28;20246;-83
2021/10/17 05:15:37;;;;;;;17.67;6.93;;;7.90;99.90;;;;;;5060631;28;20040;-83
2021/10/17 05:18:03;;;;;;;15.80;6.80;;;7.90;99.90;;;;;;5060108;28;20112;-82
2021/10/17 05:20:28;;;;;;;14.63;6.80;;;8.00;99.90;;;;;;5060247;28;20059;-83
2021/10/17 05:22:54;;;;;;;17.67;7.67;;;7.90;99.90;;;;;;5060499;28;20029;-83
2021/10/17 05:25:20;;;;;;;15.43;7.20;;;8.00;99.90;;;;;;5060155;28;20017;-83
2021/10/17 05:27:45;;;;;;;18.50;7.60;;;7.90;99.90;;;;;;5060586;28;20076;-82
2021/10/17 05:30:11;;;;;;;16.87;7.80;;;8.00;99.90;;;;;;5060795;28;20032;-82
2021/10/17 05:32:37;;;;;;;12.37;6.60;;;8.00;99.90;;;;;;5059261;28;20033;-83
2021/10/17 05:35:02;;;;;;;15.93;6.90;;;8.00;99.90;;;;;;5060931;28;20033;-83
2021/10/17 05:37:28;;;;;;;15.20;6.60;;;8.00;99.90;;;;;;5060558;28;20062;-83
2021/10/17 05:39:54;;;;;;;12.83;6.57;;;8.00;99.90;;;;;;5054962;28;20390;-83
2021/10/17 05:42:19;;;;;;;16.30;7.07;;;8.00;99.90;;;;;;5056234;28;20031;-83
2021/10/17 05:44:45;;;;;;;18.47;7.43;;;8.00;99.90;;;;;;5056587;28;20055;-83
2021/10/17 05:47:10;;;;;;;14.70;6.40;;;8.00;99.90;;;;;;5057493;28;20073;-83
2021/10/17 05:49:38;;;;;;;16.53;7.00;;;8.00;99.90;;;;;;5055530;28;20021;-83
2021/10/17 05:52:04;;;;;;;15.70;7.40;;;8.00;99.90;;;;;;5057074;28;20127;-83
2021/10/17 05:54:30;;;;;;;17.17;7.20;;;8.00;99.90;;;;;;5056977;28;20033;-83
2021/10/17 05:56:55;;;;;;;20.13;7.43;;;8.00;99.90;;;;;;5057781;28;20543;-82
2021/10/17 05:59:21;;;;;;;14.90;7.13;;;8.00;99.90;;;;;;5056989;28;20033;-83
2021/10/17 06:01:46;;;;;;;17.33;6.80;;;8.00;99.90;;;;;;5054918;28;20025;-82
2021/10/17 06:04:12;;;;;;;16.50;7.40;;;8.00;99.90;;;;;;5055025;28;20075;-83
2021/10/17 06:06:42;;;;;;;15.37;7.20;;;7.90;99.90;;;;;;5055375;28;20029;-83
2021/10/17 06:09:08;;;;;;;15.30;7.10;;;7.90;99.90;;;;;;5057285;28;20048;-81
2021/10/17 06:11:35;;;;;;;13.53;6.87;;;8.00;99.90;;;;;;5057864;28;20040;-82
2021/10/17 06:14:01;;;;;;;15.83;7.30;;;8.00;99.90;;;;;;5058378;28;20033;-83
2021/10/17 06:16:26;;;;;;;19.33;7.43;;;8.10;99.90;;;;;;5056234;28;20471;-83
2021/10/17 06:18:52;;;;;;;16.23;6.83;;;8.10;99.90;;;;;;5057886;28;20029;-82
2021/10/17 06:21:18;;;;;;;21.43;7.57;;;8.00;99.90;;;;;;5056001;28;20440;-82
2021/10/17 06:23:43;;;;;;;17.30;6.80;;;8.00;99.90;;;;;;5056230;28;20029;-82
2021/10/17 06:26:09;;;;;;;17.87;7.20;;;8.00;99.90;;;;;;5057696;28;20485;-82
2021/10/17 06:28:35;;;;;;;15.73;7.17;;;8.00;99.90;;;;;;5056666;28;20020;-82
2021/10/17 06:31:00;;;;;;;19.90;7.50;;;8.00;99.90;;;;;;5055966;28;20039;-83
2021/10/17 06:33:26;;;;;;;16.17;7.50;;;8.10;99.90;;;;;;5058872;28;20036;-83
2021/10/17 06:35:52;;;;;;;15.93;7.20;;;8.10;99.90;;;;;;5057996;28;20025;-82
2021/10/17 06:38:17;;;;;;;19.33;8.53;;;8.10;99.90;;;;;;5057523;28;20436;-82
2021/10/17 06:40:43;;;;;;;16.73;7.40;;;8.10;99.90;;;;;;5055791;28;20025;-83
2021/10/17 06:43:09;;;;;;;12.67;6.83;;;8.10;99.90;;;;;;5057030;28;20374;-83
2021/10/17 06:45:34;;;;;;;16.93;7.90;;;8.10;99.90;;;;;;5055990;28;20116;-81
2021/10/17 06:48:00;;;;;;;14.67;8.10;;;8.10;99.90;;;;;;5056596;28;20020;-81
2021/10/17 06:50:25;;;;;;;19.33;8.37;;;8.20;99.90;;;;;;5057499;28;20044;-83
2021/10/17 06:52:51;;;;;;;17.27;7.57;;;8.20;99.90;;;;;;5056261;28;20292;-83
2021/10/17 06:55:17;;;;;;;17.37;7.90;;;8.20;99.90;;;;;;5056502;28;20544;-82
2021/10/17 06:57:45;;;;;;;21.33;8.10;;;8.20;99.90;;;;;;5057356;28;20564;-83
2021/10/17 07:00:11;;;;;;;17.33;7.60;;;8.20;99.90;;;;;;5056128;28;20025;-83
2021/10/17 07:02:37;;;;;;;15.67;7.20;;;8.20;99.90;;;;;;5056532;28;20048;-83
2021/10/17 07:05:03;;;;;;;17.20;7.67;;;8.30;99.90;;;;;;5059181;28;20029;-83
2021/10/17 07:07:29;;;;;;;16.97;7.17;;;8.30;99.90;;;;;;5056795;28;20032;-82
2021/10/17 07:09:54;;;;;;;17.80;7.67;;;8.30;99.90;;;;;;5058154;28;20033;-83
2021/10/17 07:12:20;;;;;;;17.97;7.13;;;8.30;99.90;;;;;;5056144;28;20025;-82
2021/10/17 07:14:46;;;;;;;15.57;7.73;;;8.40;99.90;;;;;;5055915;28;20405;-83
2021/10/17 07:17:11;;;;;;;17.57;8.37;;;8.40;99.90;;;;;;5058311;28;20021;-83
2021/10/17 07:19:37;;;;;;;21.27;9.13;;;8.50;99.90;;;;;;5057325;28;20044;-82
2021/10/17 07:22:03;;;;;;;22.27;11.50;;;8.40;99.90;;;;;;5056244;28;20079;-83
2021/10/17 07:24:29;;;;;;;25.83;14.50;;;8.40;99.90;;;;;;5056293;28;20025;-82
2021/10/17 07:26:55;;;;;;;29.30;15.67;;;8.40;99.90;;;;;;5056761;28;20024;-82
2021/10/17 07:29:20;;;;;;;31.90;17.47;;;8.50;99.90;;;;;;5060448;28;20017;-83
2021/10/17 07:31:46;;;;;;;28.90;15.33;;;8.50;99.90;;;;;;5062215;28;20085;-83
2021/10/17 07:34:11;;;;;;;26.77;12.70;;;8.60;99.90;;;;;;5062506;28;20033;-82
2021/10/17 07:36:37;;;;;;;23.87;12.17;;;8.60;99.90;;;;;;5062035;28;20029;-83
2021/10/17 07:39:03;;;;;;;21.53;11.83;;;8.60;99.90;;;;;;5060238;28;20031;-82
2021/10/17 07:41:29;;;;;;;19.67;11.20;;;8.60;99.90;;;;;;5062017;28;20029;-83
2021/10/17 07:43:55;;;;;;;20.37;11.70;;;8.60;99.90;;;;;;5062376;28;20071;-82
2021/10/17 07:46:20;;;;;;;21.43;9.40;;;8.60;99.90;;;;;;5060970;28;20053;-83
2021/10/17 07:48:46;;;;;;;19.70;8.50;;;8.70;99.90;;;;;;5061820;28;20104;-82
2021/10/17 07:51:12;;;;;;;23.93;9.20;;;8.60;99.90;;;;;;5062090;28;20029;-83
2021/10/17 07:53:37;;;;;;;16.70;7.70;;;8.70;99.90;;;;;;5063005;28;20032;-83
2021/10/17 07:56:03;;;;;;;15.50;7.53;;;8.70;99.90;;;;;;5061541;28;20039;-83
2021/10/17 07:58:29;;;;;;;18.13;8.37;;;8.70;99.90;;;;;;5060384;28;20197;-84
2021/10/17 08:00:54;;;;;;;19.77;7.70;;;8.80;99.90;;;;;;5059120;28;20390;-83
2021/10/17 08:03:20;;;;;;;16.93;7.53;;;8.80;99.90;;;;;;5059555;28;20078;-83
2021/10/17 08:05:46;;;;;;;17.10;8.40;;;8.80;99.90;;;;;;5060472;28;20029;-83
2021/10/17 08:08:12;;;;;;;23.13;8.87;;;8.90;99.90;;;;;;5059557;28;20020;-82
2021/10/17 08:10:37;;;;;;;19.87;9.63;;;8.90;99.90;;;;;;5058692;28;20032;-84
2021/10/17 08:13:05;;;;;;;21.20;10.30;;;8.90;99.90;;;;;;5058357;28;20024;-83
2021/10/17 08:15:31;;;;;;;15.77;7.87;;;9.00;99.90;;;;;;5060114;28;20055;-83
2021/10/17 08:17:57;;;;;;;15.43;7.80;;;9.00;99.90;;;;;;5058270;28;20021;-83
2021/10/17 08:20:22;;;;;;;16.70;7.90;;;9.00;99.90;;;;;;5058496;28;20375;-82
2021/10/17 08:22:48;;;;;;;27.43;13.40;;;9.10;99.90;;;;;;5058029;28;20041;-82
2021/10/17 08:25:14;;;;;;;23.43;11.30;;;9.10;99.90;;;;;;5058203;28;20079;-82
2021/10/17 08:27:41;;;;;;;19.47;9.17;;;9.20;99.90;;;;;;5060642;28;20021;-83
2021/10/17 08:30:08;;;;;;;16.50;7.43;;;9.10;99.90;;;;;;5060693;28;20035;-81
2021/10/17 08:32:34;;;;;;;18.07;6.40;;;9.20;99.90;;;;;;5059848;28;20032;-83
2021/10/17 08:35:00;;;;;;;15.93;6.50;;;9.20;99.90;;;;;;5059613;28;20017;-83
2021/10/17 08:37:25;;;;;;;16.57;6.87;;;9.20;99.90;;;;;;5059804;28;20078;-83
2021/10/17 08:39:51;;;;;;;15.80;6.30;;;9.30;99.90;;;;;;5060579;28;20021;-83
2021/10/17 08:42:17;;;;;;;16.20;6.80;;;9.30;99.90;;;;;;5061572;28;20025;-83
2021/10/17 08:44:43;;;;;;;12.87;6.37;;;9.30;99.90;;;;;;5059760;28;20029;-83
2021/10/17 08:47:09;;;;;;;11.80;6.30;;;9.30;99.90;;;;;;5059725;28;20044;-82
2021/10/17 08:49:35;;;;;;;14.30;6.13;;;9.40;99.90;;;;;;5059779;28;20032;-82
2021/10/17 08:52:01;;;;;;;14.17;5.93;;;9.40;99.90;;;;;;5062085;28;20072;-83
2021/10/17 08:54:27;;;;;;;17.77;6.80;;;9.40;99.90;;;;;;5060965;28;20032;-83
2021/10/17 08:56:53;;;;;;;20.33;7.13;;;9.50;99.90;;;;;;5060387;28;20082;-82
2021/10/17 08:59:18;;;;;;;15.67;6.53;;;9.50;99.90;;;;;;5061551;28;20035;-83
2021/10/17 09:01:44;;;;;;;15.17;6.33;;;9.50;99.90;;;;;;5061499;28;20033;-83
2021/10/17 09:04:13;;;;;;;14.67;5.43;;;9.60;99.90;;;;;;5060146;28;20032;-83
2021/10/17 09:06:39;;;;;;;13.73;6.38;;;9.60;99.90;;;;;;5062692;28;20043;-83
2021/10/17 09:09:12;;;;;;;14.47;5.90;;;9.60;99.90;;;;;;5059817;28;20037;-83
2021/10/17 09:11:50;;;;;;;11.60;5.90;;;9.60;99.90;;;;;;5059885;28;20036;-83
2021/10/17 09:14:24;;;;;;;13.15;5.80;;;9.70;99.90;;;;;;5063159;28;20025;-83
2021/10/17 09:16:54;;;;;;;14.70;5.60;;;9.70;99.90;;;;;;5065489;28;20031;-84
2021/10/17 09:19:31;;;;;;;12.80;4.97;;;9.80;99.90;;;;;;5063185;28;20100;-82
2021/10/17 09:22:04;;;;;;;15.20;6.07;;;9.80;99.90;;;;;;5064140;28;20116;-84
2021/10/17 09:24:34;;;;;;;11.70;5.70;;;9.80;99.90;;;;;;5064176;28;20028;-83
2021/10/17 09:27:06;;;;;;;11.90;5.13;;;9.90;99.90;;;;;;5064376;28;20441;-83
2021/10/17 09:29:33;;;;;;;11.53;5.23;;;9.90;99.90;;;;;;5064993;28;20025;-83
2021/10/17 09:31:58;;;;;;;13.43;5.30;;;9.90;99.90;;;;;;5064247;28;20029;-83
2021/10/17 09:34:30;;;;;;;12.87;5.03;;;9.90;99.90;;;;;;5063947;28;20032;-83
2021/10/17 09:37:10;;;;;;;11.17;4.87;;;10.00;99.90;;;;;;5065583;28;20025;-83
2021/10/17 09:39:40;;;;;;;12.27;4.60;;;10.00;99.90;;;;;;5063270;28;20029;-83
2021/10/17 09:42:07;;;;;;;11.73;4.50;;;10.00;99.90;;;;;;5064536;28;20125;-82
2021/10/17 09:44:37;;;;;;;10.77;5.20;;;10.10;99.90;;;;;;5063810;28;20044;-83
2021/10/17 09:47:03;;;;;;;12.03;4.70;;;10.10;99.90;;;;;;5063241;28;20017;-83
2021/10/17 09:49:30;;;;;;;11.80;4.83;;;10.20;99.90;;;;;;5062479;28;20047;-83
2021/10/17 09:52:16;;;;;;;11.00;4.63;;;10.20;99.90;;;;;;5063956;28;20025;-83
2021/10/17 09:54:47;;;;;;;10.63;4.43;;;10.20;99.90;;;;;;5063553;28;20032;-83
2021/10/17 09:57:13;;;;;;;10.00;4.43;;;10.30;99.90;;;;;;5063753;28;20029;-83
2021/10/17 09:59:39;;;;;;;10.27;5.10;;;10.30;99.90;;;;;;5063085;28;20397;-83
2021/10/17 10:02:08;;;;;;;12.97;5.53;;;10.40;99.90;;;;;;5063933;28;20120;-83
2021/10/17 10:04:38;;;;;;;11.03;4.80;;;10.40;99.90;;;;;;5064221;28;20032;-82
2021/10/17 10:07:05;;;;;;;10.83;4.53;;;10.50;99.90;;;;;;5063787;28;20108;-83
2021/10/17 10:09:31;;;;;;;12.03;3.93;;;10.50;99.90;;;;;;5063559;28;20113;-83
2021/10/17 10:11:58;;;;;;;13.60;4.30;;;10.50;99.90;;;;;;5064918;28;20032;-83
2021/10/17 10:14:24;;;;;;;11.67;3.97;;;10.60;99.90;;;;;;5064984;28;20040;-83
2021/10/17 10:16:55;;;;;;;12.87;3.97;;;10.60;99.90;;;;;;5065787;28;20025;-83
2021/10/17 10:19:20;;;;;;;11.77;4.60;;;10.60;99.90;;;;;;5066398;28;20051;-81
2021/10/17 10:21:46;;;;;;;10.33;3.53;;;10.70;99.90;;;;;;5065618;28;20094;-83
2021/10/17 10:24:12;;;;;;;10.07;3.80;;;10.80;99.90;;;;;;5066773;28;20025;-83
2021/10/17 10:26:41;;;;;;;10.97;3.53;;;10.80;99.90;;;;;;5069221;28;20021;-83
2021/10/17 10:29:07;;;;;;;9.85;4.10;;;10.80;99.90;;;;;;5068364;28;20029;-82
2021/10/17 10:31:55;;;;;;;10.73;3.50;;;10.90;99.90;;;;;;5064780;28;20065;-82
2021/10/17 10:34:21;;;;;;;7.97;3.63;;;11.00;99.90;;;;;;5060625;28;20388;-81
2021/10/17 10:36:52;;;;;;;9.90;3.33;;;11.00;99.90;;;;;;5062159;28;20048;-83
2021/10/17 10:39:32;;;;;;;8.80;3.53;;;11.00;99.90;;;;;;5060118;28;20032;-82
2021/10/17 10:42:02;;;;;;;6.97;3.20;;;11.00;99.90;;;;;;5060863;28;20028;-83
2021/10/17 10:44:31;;;;;;;7.87;3.10;;;11.10;99.90;;;;;;5060301;28;20531;-83
2021/10/17 10:46:58;;;;;;;8.52;3.30;;;11.20;99.90;;;;;;5062181;28;20025;-83
2021/10/17 10:49:53;;;;;;;9.33;3.33;;;11.20;99.90;;;;;;5060885;28;20382;-83
2021/10/17 10:52:28;;;;;;;8.93;3.37;;;11.20;99.90;;;;;;5048979;28;20033;-82
2021/10/17 10:54:56;;;;;;;11.10;3.70;;;11.30;99.90;;;;;;5062860;28;20028;-83
2021/10/17 10:57:29;;;;;;;8.30;3.80;;;11.30;99.90;;;;;;5062329;28;20457;-82
2021/10/17 11:00:08;;;;;;;9.70;3.47;;;11.30;99.90;;;;;;5060266;28;20447;-84
2021/10/17 11:02:34;;;;;;;14.90;3.58;;;11.40;99.90;;;;;;5061542;28;20072;-82
2021/10/17 11:05:04;;;;;;;8.87;2.90;;;11.40;99.90;;;;;;5061904;28;20048;-83
2021/10/17 11:07:34;;;;;;;8.03;3.07;;;11.40;99.90;;;;;;5060338;28;20033;-83
2021/10/17 11:10:27;;;;;;;11.03;3.03;;;11.50;99.90;;;;;;5059427;28;20549;-82
2021/10/17 11:12:57;;;;;;;7.30;3.40;;;11.50;99.90;;;;;;5060172;28;20033;-82
2021/10/17 11:15:23;;;;;;;;;;;11.60;99.90;;;;;;5058319;28;20060;-83
2021/10/17 11:18:04;;;;;;;12.07;2.90;;;11.60;99.90;;;;;;5056223;28;19942;-82
2021/10/17 11:20:33;;;;;;;9.13;3.00;;;11.60;99.90;;;;;;5059430;28;20529;-82
2021/10/17 11:23:00;;;;;;;10.30;3.25;;;11.70;99.90;;;;;;5060101;28;20017;-83
2021/10/17 11:25:27;;;;;;;9.37;3.33;;;11.70;99.90;;;;;;5060449;28;20413;-83
2021/10/17 11:27:53;;;;;;;6.13;3.40;;;11.60;99.90;;;;;;5059832;28;20025;-83
2021/10/17 11:30:19;;;;;;;7.03;2.77;;;11.60;99.90;;;;;;5060678;28;20017;-83
2021/10/17 11:32:45;;;;;;;7.90;3.43;;;11.60;99.90;;;;;;5060651;28;20031;-83
2021/10/17 11:35:10;;;;;;;10.13;3.20;;;11.60;99.90;;;;;;5062259;28;20013;-82
2021/10/17 11:37:36;;;;;;;5.07;2.67;;;11.70;99.90;;;;;;5058965;28;20036;-83
2021/10/17 11:40:10;;;;;;;7.93;3.60;;;11.70;99.90;;;;;;5059110;28;20478;-83
2021/10/17 11:42:58;;;;;;;11.93;3.23;;;11.70;99.90;;;;;;5059299;28;20021;-83
2021/10/17 11:45:35;;;;;;;10.13;3.13;;;11.80;99.90;;;;;;5059386;28;20021;-82
2021/10/17 11:48:03;;;;;;;8.52;3.20;;;11.90;99.80;;;;;;5060134;28;20482;-82
2021/10/17 11:50:32;;;;;;;12.20;3.83;;;11.90;99.70;;;;;;5058908;28;20049;-82
2021/10/17 11:53:08;;;;;;;10.07;3.90;;;12.00;98.60;;;;;;5058156;28;20032;-83
2021/10/17 11:55:42;;;;;;;9.00;3.63;;;12.00;97.60;;;;;;5061222;28;20051;-83
2021/10/17 11:58:26;;;;;;;8.97;3.30;;;12.10;97.70;;;;;;5061552;28;20028;-83
2021/10/17 12:01:11;;;;;;;9.40;3.63;;;12.10;97.70;;;;;;5058286;28;20021;-83
2021/10/17 12:03:37;;;;;;;8.88;3.67;;;12.20;98.20;;;;;;5060204;28;20048;-83
2021/10/17 12:06:04;;;;;;;8.40;3.57;;;12.20;98.00;;;;;;5058915;28;20021;-83
2021/10/17 12:08:32;;;;;;;9.25;4.00;;;12.20;98.20;;;;;;5060053;28;20029;-84
2021/10/17 12:11:11;;;;;;;11.27;4.10;;;12.20;98.50;;;;;;5059374;28;20036;-83
2021/10/17 12:13:44;;;;;;;9.75;3.97;;;12.20;98.60;;;;;;5060779;28;20076;-83
2021/10/17 12:16:16;;;;;;;8.37;3.73;;;12.20;98.70;;;;;;5059593;28;20410;-83
2021/10/17 12:18:43;;;;;;;10.05;3.78;;;12.20;98.00;;;;;;5059336;28;20082;-83
2021/10/17 12:21:11;;;;;;;6.93;3.40;;;12.30;98.10;;;;;;5058299;28;20040;-82
2021/10/17 12:23:38;;;;;;;7.77;3.53;;;12.30;97.60;;;;;;5060056;28;20507;-83
2021/10/17 12:26:04;;;;;;;7.97;3.55;;;12.30;97.00;;;;;;5059502;28;20385;-82
2021/10/17 12:28:30;;;;;;;10.63;3.73;;;12.30;96.50;;;;;;5060185;28;20070;-83
2021/10/17 12:30:58;;;;;;;8.55;4.10;;;12.30;97.00;;;;;;5058227;28;20027;-82
2021/10/17 12:33:36;;;;;;;9.18;4.53;;;12.30;97.30;;;;;;5059252;28;20551;-83
2021/10/17 12:36:04;;;;;;;8.23;4.10;;;12.30;98.00;;;;;;5059952;28;20025;-82
2021/10/17 12:38:36;;;;;;;10.25;3.95;;;12.20;97.80;;;;;;5059989;28;20025;-82
2021/10/17 12:41:06;;;;;;;12.93;4.60;;;12.20;97.70;;;;;;5059712;28;20029;-83
2021/10/17 12:43:43;;;;;;;9.55;4.82;;;12.30;97.80;;;;;;5059240;28;20025;-82
2021/10/17 12:46:17;;;;;;;8.90;4.07;;;12.20;98.10;;;;;;5059655;28;20017;-83